North Union, Pennsylvania
Current Conditions -  °F | °C
As of 1:15 PM on Friday 19 Dec 2014 (Local Time) from KHZL Reporting Station
Broken Clouds Broken Clouds  
Wind Chill: 23°   Ceiling: 2400
Heat Index: 32°   Visibility: 10mi
Dew Point: 21°   Wind: 13mph
Humidity: 64%   Direction: 320°NW
Pressure: 30.04"   Gusts: 20mph
Location:  40.9395°N, 76.2498°W
Report Text: KHZL 191815Z AUTO 32011G17KT 10SM BKN024 00/M06 A3004 RMK AO2
Loading
Personal Weather Stations






























Interactive Weather Map New forecast layout! Learn more

10-Day Weather Forecast

Advertisements
Track Severe Weather on mobile